Bidford-on-avon, United Kingdom
Current Conditions -  °F | °C
As of 1:20 AM on Friday 19 Dec 2014 (Local Time) from EGBB Reporting Station
Light Rain Light Rain  
Wind Chill: 54°   Ceiling: 1600
Heat Index: 54°   Visibility: 6mi
Dew Point: 52°   Wind: 9mph
Humidity: 94%   Direction: 220°SW
Pressure: 29.68"   Gusts: NA
Location:  52.17°N, 1.86°W
Report Text: EGBB 190120Z AUTO 22008KT 190V270 9999 -RA FEW012/// BKN016/// OVC022/// 12/11 Q1005 RERA
Loading
Personal Weather Stations






























Interactive Weather Map New forecast layout! Learn more

10-Day Weather Forecast

Advertisements
Track Severe Weather on mobile